Time;durP1;ratioP1;P1;durP2;ratioP2;P2;SDS_P1;SDS_P2;PMS_P1;PMS_P2;Temp;Humidity;BMP_temperature;BMP_pressure;BME280_temperature;BME280_humidity;BME280_pressure;Samples;Min_cycle;Max_cycle;Signal;HPM_P1;HPM_P2
2022/01/01 00:02:23;;;;;;;39.13;20.17;;;;;;;-0.58;74.72;97474.28;5071006;28;20047;-58
2022/01/01 00:04:49;;;;;;;41.45;20.38;;;;;;;-0.56;74.38;97464.47;5070837;28;20048;-59
2022/01/01 00:07:16;;;;;;;44.83;21.13;;;;;;;-0.56;74.47;97466.25;5052775;28;20049;-58
2022/01/01 00:09:43;;;;;;;38.47;19.65;;;;;;;-0.53;74.88;97471.03;5071103;28;20391;-58
2022/01/01 00:12:10;;;;;;;42.80;20.63;;;;;;;-0.52;74.30;97459.63;5070713;28;20098;-58
2022/01/01 00:14:36;;;;;;;38.22;19.65;;;;;;;-0.48;74.40;97461.56;5071045;28;20048;-58
2022/01/01 00:17:03;;;;;;;36.58;19.85;;;;;;;-0.44;74.49;97466.34;5070712;28;20486;-58
2022/01/01 00:19:31;;;;;;;34.03;18.20;;;;;;;-0.47;74.49;97450.19;5071158;28;20090;-58
2022/01/01 00:22:01;;;;;;;33.22;17.38;;;;;;;-0.34;74.69;97453.66;5070688;28;20098;-59
2022/01/01 00:24:27;;;;;;;34.75;16.52;;;;;;;-0.30;73.77;97452.22;5070949;28;20045;-59
2022/01/01 00:26:52;;;;;;;29.58;15.00;;;;;;;-0.32;74.20;97449.84;5071577;28;20098;-58
2022/01/01 00:29:19;;;;;;;34.47;15.60;;;;;;;-0.38;74.34;97450.69;5073705;28;20409;-58
2022/01/01 00:31:44;;;;;;;29.75;16.20;;;;;;;-0.49;74.76;97436.56;5074339;28;20044;-58
2022/01/01 00:34:11;;;;;;;32.30;16.05;;;;;;;-0.53;75.29;97445.81;5074472;28;20112;-59
2022/01/01 00:36:36;;;;;;;30.52;15.85;;;;;;;-0.52;74.83;97446.63;5074186;28;20045;-58
2022/01/01 00:39:03;;;;;;;34.22;15.82;;;;;;;-0.42;74.96;97435.72;5074524;28;20217;-59
2022/01/01 00:41:29;;;;;;;30.55;15.68;;;;;;;-0.43;74.64;97437.53;5074278;28;20040;-59
2022/01/01 00:43:54;;;;;;;31.08;14.98;;;;;;;-0.42;75.28;97440.91;5074587;28;20050;-59
2022/01/01 00:46:20;;;;;;;29.63;15.85;;;;;;;-0.50;75.64;97441.97;5073890;28;20502;-58
2022/01/01 00:48:46;;;;;;;26.67;15.00;;;;;;;-0.43;75.62;97439.34;5074721;28;20044;-58
2022/01/01 00:51:12;;;;;;;29.73;15.65;;;;;;;-0.54;75.29;97438.22;5074159;28;20468;-58
2022/01/01 00:53:37;;;;;;;26.58;13.98;;;;;;;-0.53;75.60;97437.19;5074658;28;20048;-59
2022/01/01 00:56:03;;;;;;;31.52;15.65;;;;;;;-0.47;75.81;97441.56;5074045;28;20052;-58
2022/01/01 00:58:29;;;;;;;28.35;14.68;;;;;;;-0.44;75.56;97435.94;5073963;28;20140;-58
2022/01/01 01:00:55;;;;;;;29.27;14.65;;;;;;;-0.32;76.16;97433.44;5073802;28;20563;-58
2022/01/01 01:03:21;;;;;;;30.77;15.15;;;;;;;-0.37;75.77;97433.28;5074325;28;20086;-58
2022/01/01 01:05:47;;;;;;;31.88;16.35;;;;;;;-0.47;75.54;97428.56;5072296;28;20048;-58
2022/01/01 01:08:15;;;;;;;32.03;15.75;;;;;;;-0.38;75.61;97424.66;5074289;28;20044;-58
2022/01/01 01:10:44;;;;;;;27.85;15.10;;;;;;;-0.32;75.72;97423.81;5073773;28;20059;-58
2022/01/01 01:13:10;;;;;;;30.20;14.77;;;;;;;-0.31;75.45;97428.00;5073946;28;20398;-58
2022/01/01 01:15:36;;;;;;;31.33;14.70;;;;;;;-0.32;75.25;97423.00;5073599;28;20482;-58
2022/01/01 01:18:04;;;;;;;27.80;14.00;;;;;;;-0.31;75.05;97414.97;5073811;28;20032;-58
2022/01/01 01:20:32;;;;;;;32.67;14.27;;;;;;;-0.35;75.15;97419.03;5073888;28;20049;-57
2022/01/01 01:22:57;;;;;;;31.23;15.07;;;;;;;-0.30;75.45;97423.56;5072326;28;20040;-59
2022/01/01 01:25:25;;;;;;;28.35;15.05;;;;;;;-0.37;75.55;97428.06;5073802;28;20525;-58
2022/01/01 01:27:51;;;;;;;84.95;42.50;;;;;;;-0.31;75.97;97424.59;5073588;28;20044;-58
2022/01/01 01:30:18;;;;;;;53.60;25.55;;;;;;;-0.30;75.18;97416.56;5073784;28;20090;-57
2022/01/01 01:32:45;;;;;;;42.15;19.08;;;;;;;-0.19;75.62;97422.06;5072175;28;20459;-57
2022/01/01 01:35:12;;;;;;;31.00;15.82;;;;;;;-0.17;75.42;97415.66;5073308;28;20065;-58
2022/01/01 01:37:38;;;;;;;29.52;15.05;;;;;;;-0.10;75.39;97415.56;5071726;28;20178;-57
2022/01/01 01:40:05;;;;;;;27.50;14.65;;;;;;;-0.14;74.78;97410.00;5073091;28;20536;-58
2022/01/01 01:42:32;;;;;;;31.92;14.52;;;;;;;-0.09;75.52;97411.94;5071537;28;20058;-58
2022/01/01 01:45:00;;;;;;;31.02;14.60;;;;;;;-0.07;75.01;97412.53;5071633;28;20402;-59
2022/01/01 01:47:36;;;;;;;27.60;14.27;;;;;;;-0.16;74.56;97414.63;5054789;28;20090;-58
2022/01/01 01:50:06;;;;;;;24.42;13.68;;;;;;;-0.14;75.30;97406.59;5073389;28;20053;-58
2022/01/01 01:52:35;;;;;;;27.87;14.60;;;;;;;-0.17;75.44;97412.25;5071682;28;20042;-57
2022/01/01 01:55:02;;;;;;;25.25;13.27;;;;;;;-0.12;75.46;97407.16;5073004;28;20094;-57
2022/01/01 01:57:30;;;;;;;30.08;14.43;;;;;;;-0.17;75.31;97401.84;5071365;28;20040;-58
2022/01/01 01:59:56;;;;;;;28.88;13.80;;;;;;;-0.08;75.45;97414.34;5072830;28;20071;-58
2022/01/01 02:02:21;;;;;;;29.75;14.02;;;;;;;-0.14;75.82;97406.59;5072930;28;20493;-58
2022/01/01 02:04:47;;;;;;;28.85;14.20;;;;;;;-0.13;75.42;97414.19;5072822;28;20132;-58
2022/01/01 02:07:13;;;;;;;29.77;14.55;;;;;;;-0.24;75.80;97413.13;5072636;28;20044;-57
2022/01/01 02:09:39;;;;;;;36.38;15.05;;;;;;;-0.21;76.19;97417.06;5072794;28;20041;-59
2022/01/01 02:12:07;;;;;;;27.50;14.45;;;;;;;-0.16;76.29;97417.22;5072647;28;20087;-58
2022/01/01 02:17:35;;;;;;;30.60;13.93;;;;;;;-0.23;76.93;97419.13;5071799;28;20041;-57
2022/01/01 02:20:14;;;;;;;27.98;13.05;;;;;;;-0.29;77.00;97414.78;5072365;28;20147;-59
2022/01/01 02:22:47;;;;;;;29.02;13.50;;;;;;;-0.30;76.91;97406.13;5071325;28;20099;-58
2022/01/01 02:25:14;;;;;;;28.05;13.70;;;;;;;-0.22;77.46;97410.28;5072352;28;20119;-58
2022/01/01 02:27:40;;;;;;;27.00;14.20;;;;;;;-0.11;77.18;97414.78;5072289;28;20490;-58
2022/01/01 02:30:08;;;;;;;26.17;12.77;;;;;;;-0.08;77.59;97403.13;5070634;28;20143;-57
2022/01/01 02:32:34;;;;;;;31.08;13.75;;;;;;;-0.14;77.06;97404.00;5072469;28;20479;-57
2022/01/01 02:35:00;;;;;;;28.60;13.43;;;;;;;-0.08;76.94;97405.72;5072008;28;20059;-59
2022/01/01 02:37:26;;;;;;;28.48;13.65;;;;;;;-0.12;76.93;97404.56;5072265;28;20511;-57
2022/01/01 02:39:52;;;;;;;28.20;12.85;;;;;;;-0.05;77.08;97405.28;5071975;28;20074;-58
2022/01/01 02:42:20;;;;;;;29.25;12.48;;;;;;;0.03;77.35;97409.41;5072148;28;20485;-58
2022/01/01 02:44:46;;;;;;;24.13;12.23;;;;;;;0.03;77.12;97417.22;5072080;28;20040;-59
2022/01/01 02:47:12;;;;;;;25.25;12.45;;;;;;;0.03;77.15;97414.59;5071744;28;20078;-58
2022/01/01 02:49:38;;;;;;;26.35;12.02;;;;;;;0.08;76.41;97418.16;5069557;28;20044;-58
2022/01/01 02:52:04;;;;;;;29.27;12.52;;;;;;;0.12;76.76;97408.91;5070328;28;20139;-58
2022/01/01 02:54:30;;;;;;;26.42;12.30;;;;;;;0.15;77.05;97405.06;5070270;28;20562;-57
2022/01/01 02:56:55;;;;;;;34.00;12.90;;;;;;;0.19;76.70;97401.78;5071627;28;20036;-58
2022/01/01 02:59:21;;;;;;;26.77;11.68;;;;;;;0.19;75.70;97414.81;5071555;28;20044;-58
2022/01/01 03:01:47;;;;;;;24.60;11.95;;;;;;;0.03;76.82;97405.00;5071767;28;20076;-57
2022/01/01 03:04:13;;;;;;;25.30;12.13;;;;;;;0.07;77.03;97410.56;5071544;28;20394;-57
2022/01/01 03:06:39;;;;;;;23.73;11.82;;;;;;;0.14;76.28;97403.47;5071825;28;20040;-57
2022/01/01 03:09:05;;;;;;;27.88;11.63;;;;;;;0.27;75.46;97399.91;5070389;28;20102;-58
2022/01/01 03:11:31;;;;;;;24.85;11.50;;;;;;;0.32;75.48;97405.25;5071597;28;20047;-58
2022/01/01 03:13:57;;;;;;;24.83;11.60;;;;;;;0.30;75.84;97409.91;5071662;28;20143;-58
2022/01/01 03:16:23;;;;;;;25.27;12.27;;;;;;;0.33;76.03;97407.66;5071451;28;20136;-56
2022/01/01 03:18:49;;;;;;;25.27;11.63;;;;;;;0.29;76.02;97408.28;5071972;28;20044;-58
2022/01/01 03:21:14;;;;;;;24.50;11.98;;;;;;;0.29;75.67;97406.47;5071454;28;20044;-57
2022/01/01 03:23:40;;;;;;;25.83;11.65;;;;;;;0.25;75.40;97397.53;5071963;28;20417;-57
2022/01/01 03:26:06;;;;;;;27.88;12.20;;;;;;;0.28;75.96;97404.91;5069880;28;20048;-58
2022/01/01 03:28:32;;;;;;;23.95;11.52;;;;;;;0.30;75.84;97407.28;5071633;28;20056;-57
2022/01/01 03:30:58;;;;;;;22.33;10.88;;;;;;;0.28;75.74;97415.31;5071413;28;20052;-57
2022/01/01 03:33:24;;;;;;;21.13;11.30;;;;;;;0.16;75.25;97404.84;5071867;28;20044;-58
2022/01/01 03:35:50;;;;;;;23.73;11.15;;;;;;;0.26;75.99;97412.13;5069947;28;20114;-58
2022/01/01 03:38:16;;;;;;;22.38;10.57;;;;;;;0.23;75.22;97402.16;5070204;28;20082;-57
2022/01/01 03:40:43;;;;;;;18.83;9.98;;;;;;;0.14;75.42;97409.47;5071267;28;20188;-57
2022/01/01 03:43:09;;;;;;;18.50;10.05;;;;;;;0.19;75.56;97406.22;5071585;28;20383;-57
2022/01/01 03:45:36;;;;;;;22.50;10.18;;;;;;;0.15;75.77;97407.69;5070946;28;20053;-57
2022/01/01 03:48:05;;;;;;;18.48;9.90;;;;;;;0.08;76.13;97401.72;5071057;28;20606;-56
2022/01/01 03:50:30;;;;;;;21.90;10.50;;;;;;;0.14;75.74;97406.06;5071017;28;20056;-57
2022/01/01 03:52:56;;;;;;;22.70;10.10;;;;;;;0.23;75.27;97408.16;5071507;28;20037;-57
2022/01/01 03:55:22;;;;;;;18.45;8.73;;;;;;;0.22;75.24;97395.34;5070928;28;20044;-57
2022/01/01 03:57:47;;;;;;;17.40;9.32;;;;;;;0.29;75.34;97403.88;5071040;28;20052;-58
2022/01/01 04:00:15;;;;;;;23.05;10.32;;;;;;;0.35;74.70;97395.16;5070963;28;20040;-58
2022/01/01 04:02:41;;;;;;;17.52;9.00;;;;;;;0.38;74.72;97399.97;5075113;28;20049;-55
2022/01/01 04:05:07;;;;;;;17.95;9.40;;;;;;;0.40;74.33;97403.13;5075967;28;20052;-57
2022/01/01 04:07:33;;;;;;;19.52;9.63;;;;;;;0.34;74.16;97404.00;5076825;28;20509;-57
2022/01/01 04:09:59;;;;;;;19.63;9.57;;;;;;;0.31;74.67;97406.28;5075975;28;20057;-56
2022/01/01 04:12:25;;;;;;;17.15;9.27;;;;;;;0.32;74.68;97408.66;5076138;28;20040;-57
2022/01/01 04:14:51;;;;;;;22.30;8.80;;;;;;;0.34;75.17;97404.00;5075758;28;20120;-56
2022/01/01 04:17:18;;;;;;;17.08;8.65;;;;;;;0.38;74.72;97399.16;5074972;28;20048;-56
2022/01/01 04:19:44;;;;;;;17.27;8.45;;;;;;;0.38;74.56;97409.56;5073486;28;20060;-58
2022/01/01 04:22:11;;;;;;;19.45;10.25;;;;;;;0.23;74.40;97400.34;5074595;28;20044;-58
2022/01/01 04:24:37;;;;;;;17.90;8.68;;;;;;;0.26;74.77;97400.91;5073508;28;20628;-56
2022/01/01 04:27:04;;;;;;;17.52;9.45;;;;;;;0.28;75.04;97410.09;5074554;28;20040;-58
2022/01/01 04:29:30;;;;;;;19.45;10.45;;;;;;;0.31;74.84;97401.84;5074604;28;20198;-57
2022/01/01 04:31:56;;;;;;;15.80;8.73;;;;;;;0.36;74.51;97399.38;5074351;28;20525;-58
2022/01/01 04:34:23;;;;;;;16.27;8.57;;;;;;;0.43;74.87;97404.50;5074775;28;20060;-57
2022/01/01 04:36:58;;;;;;;17.20;9.40;;;;;;;0.46;74.04;97398.84;5072507;28;20044;-57
2022/01/01 04:39:23;;;;;;;17.25;9.00;;;;;;;0.49;74.67;97398.41;5074104;28;20048;-59
2022/01/01 04:41:49;;;;;;;15.80;9.40;;;;;;;0.48;74.33;97401.25;5074252;28;20048;-57
2022/01/01 04:44:15;;;;;;;19.23;9.82;;;;;;;0.49;74.38;97403.63;5074307;28;20177;-59
2022/01/01 04:46:41;;;;;;;21.20;10.20;;;;;;;0.52;74.03;97402.38;5073970;28;20040;-57
2022/01/01 04:49:06;;;;;;;18.25;9.68;;;;;;;0.53;74.14;97403.97;5074435;28;20044;-57
2022/01/01 04:51:32;;;;;;;22.40;10.95;;;;;;;0.51;73.96;97401.59;5074098;28;20044;-57
2022/01/01 04:54:01;;;;;;;21.48;10.05;;;;;;;0.51;74.43;97398.19;5074424;28;20045;-59
2022/01/01 04:56:28;;;;;;;19.13;9.52;;;;;;;0.45;74.37;97400.66;5074066;28;20129;-58
2022/01/01 04:58:55;;;;;;;15.73;8.90;;;;;;;0.44;74.22;97399.09;5073908;28;20501;-59
2022/01/01 05:01:21;;;;;;;19.48;9.32;;;;;;;0.36;74.34;97403.81;5073794;28;20501;-57
2022/01/01 05:03:47;;;;;;;18.23;9.50;;;;;;;0.40;74.37;97405.75;5074432;28;20130;-57
2022/01/01 05:06:12;;;;;;;17.52;8.57;;;;;;;0.41;74.74;97416.94;5073919;28;20075;-57
2022/01/01 05:08:38;;;;;;;16.05;8.70;;;;;;;0.32;74.88;97407.84;5074338;28;20051;-57
2022/01/01 05:11:04;;;;;;;18.25;8.77;;;;;;;0.37;75.16;97410.59;5073346;28;20040;-56
2022/01/01 05:13:30;;;;;;;17.90;8.55;;;;;;;0.35;74.84;97403.00;5073451;28;20120;-58
2022/01/01 05:15:56;;;;;;;17.80;9.18;;;;;;;0.44;74.41;97408.69;5073743;28;20056;-58
2022/01/01 05:18:22;;;;;;;16.88;8.85;;;;;;;0.42;74.72;97410.75;5072266;28;20036;-57
2022/01/01 05:20:49;;;;;;;18.38;9.05;;;;;;;0.39;74.65;97411.19;5073843;28;20489;-58
2022/01/01 05:23:15;;;;;;;20.67;9.82;;;;;;;0.38;75.17;97410.41;5073918;28;20044;-57
2022/01/01 05:25:41;;;;;;;18.25;8.68;;;;;;;0.30;75.08;97421.13;5072337;28;20040;-57
2022/01/01 05:28:07;;;;;;;17.60;9.35;;;;;;;0.34;75.25;97418.88;5073649;28;20036;-58
2022/01/01 05:30:33;;;;;;;17.77;9.27;;;;;;;0.38;74.58;97425.22;5073357;28;20110;-57
2022/01/01 05:33:02;;;;;;;15.85;8.30;;;;;;;0.38;74.43;97433.03;5072110;28;20090;-58
2022/01/01 05:35:28;;;;;;;18.00;9.20;;;;;;;0.39;74.38;97416.41;5073174;28;20464;-58
2022/01/01 05:37:54;;;;;;;18.80;9.15;;;;;;;0.40;75.18;97428.41;5073472;28;20090;-58
2022/01/01 05:40:20;;;;;;;16.90;9.05;;;;;;;0.40;74.86;97431.81;5073222;28;20049;-57
2022/01/01 05:42:45;;;;;;;19.45;9.10;;;;;;;0.43;74.57;97433.97;5073447;28;20063;-58
2022/01/01 05:45:11;;;;;;;17.05;9.02;;;;;;;0.50;74.60;97433.09;5073248;28;20501;-58
2022/01/01 05:47:37;;;;;;;21.88;9.57;;;;;;;0.44;74.89;97439.97;5073704;28;20068;-57
2022/01/01 05:50:04;;;;;;;18.30;9.05;;;;;;;0.49;74.59;97441.94;5073274;28;20044;-59
2022/01/01 05:52:30;;;;;;;19.38;9.18;;;;;;;0.57;74.60;97445.03;5073332;28;20075;-57
2022/01/01 05:54:55;;;;;;;16.58;9.02;;;;;;;0.62;73.79;97444.38;5072465;28;20076;-58
2022/01/01 05:57:21;;;;;;;19.10;9.82;;;;;;;0.60;74.13;97444.59;5073327;28;20032;-57
2022/01/01 05:59:47;;;;;;;21.30;9.80;;;;;;;0.51;73.69;97445.91;5072496;28;20044;-59
2022/01/01 06:02:13;;;;;;;18.90;9.82;;;;;;;0.50;74.54;97452.16;5073326;28;20067;-57
2022/01/01 06:04:38;;;;;;;21.27;10.40;;;;;;;0.51;74.86;97447.72;5073360;28;20128;-59
2022/01/01 06:07:04;;;;;;;20.40;10.18;;;;;;;0.59;74.17;97450.00;5072626;28;20071;-58
2022/01/01 06:09:30;;;;;;;18.30;9.27;;;;;;;0.65;73.63;97442.13;5071534;28;20055;-58
2022/01/01 06:11:56;;;;;;;21.10;10.23;;;;;;;0.73;73.97;97442.81;5072697;28;20056;-58
2022/01/01 06:14:22;;;;;;;18.70;9.85;;;;;;;0.70;73.98;97440.66;5072589;28;20041;-59
2022/01/01 06:16:48;;;;;;;21.42;10.35;;;;;;;0.72;73.58;97449.06;5072850;28;20068;-58
2022/01/01 06:19:14;;;;;;;20.25;10.48;;;;;;;0.70;74.06;97448.47;5072254;28;20429;-59
2022/01/01 06:21:40;;;;;;;19.08;9.85;;;;;;;0.70;73.74;97441.44;5072939;28;20047;-57
2022/01/01 06:24:06;;;;;;;18.80;9.93;;;;;;;0.66;74.11;97445.53;5070655;28;20053;-59
2022/01/01 06:26:32;;;;;;;19.52;8.82;;;;;;;0.70;73.80;97444.06;5072293;28;20037;-59
2022/01/01 06:28:58;;;;;;;16.70;9.07;;;;;;;0.74;73.71;97442.59;5072341;28;20076;-57
2022/01/01 06:31:24;;;;;;;18.73;9.60;;;;;;;0.70;73.64;97445.88;5072266;28;20477;-57
2022/01/01 06:33:50;;;;;;;17.30;9.95;;;;;;;0.68;74.11;97444.28;5070725;28;20071;-58
2022/01/01 06:36:17;;;;;;;19.98;9.55;;;;;;;0.76;74.03;97442.38;5072250;28;20048;-58
2022/01/01 06:38:44;;;;;;;17.63;9.60;;;;;;;0.80;73.45;97441.72;5070881;28;20036;-58
2022/01/01 06:41:11;;;;;;;23.33;9.73;;;;;;;0.78;72.60;97446.34;5072383;28;20072;-58
2022/01/01 06:43:38;;;;;;;17.13;9.38;;;;;;;0.75;73.30;97446.81;5070875;28;20040;-58
2022/01/01 06:46:07;;;;;;;16.90;9.23;;;;;;;0.77;73.91;97439.56;5071949;28;20040;-58
2022/01/01 06:48:34;;;;;;;20.48;9.30;;;;;;;0.85;73.06;97447.06;5070739;28;20071;-58
2022/01/01 06:51:00;;;;;;;19.00;9.65;;;;;;;0.85;72.63;97441.84;5070780;28;20047;-58
2022/01/01 06:53:26;;;;;;;20.45;9.48;;;;;;;0.81;73.32;97451.13;5072104;28;20037;-58
2022/01/01 06:55:52;;;;;;;19.85;9.40;;;;;;;0.89;72.95;97450.81;5072058;28;20036;-57
2022/01/01 06:58:18;;;;;;;23.00;10.18;;;;;;;0.94;72.67;97455.34;5071971;28;20051;-59
2022/01/01 07:00:44;;;;;;;18.67;9.55;;;;;;;0.84;73.12;97453.28;5072096;28;20063;-58
2022/01/01 07:03:10;;;;;;;19.67;9.57;;;;;;;0.86;73.37;97460.91;5071592;28;20051;-58
2022/01/01 07:05:35;;;;;;;22.63;9.23;;;;;;;0.90;72.93;97459.44;5071666;28;20049;-58
2022/01/01 07:08:01;;;;;;;19.98;9.98;;;;;;;0.87;73.05;97455.44;5071837;28;20040;-57
2022/01/01 07:10:27;;;;;;;18.70;9.55;;;;;;;0.86;73.05;97453.88;5071870;28;20051;-58
2022/01/01 07:12:53;;;;;;;18.50;9.88;;;;;;;0.84;73.14;97457.72;5070366;28;20040;-58
2022/01/01 07:15:19;;;;;;;20.38;10.45;;;;;;;0.94;72.76;97457.97;5070173;28;20052;-57
2022/01/01 07:17:45;;;;;;;20.70;9.30;;;;;;;0.98;72.80;97461.72;5071977;28;20044;-58
2022/01/01 07:20:11;;;;;;;20.35;10.43;;;;;;;0.88;72.92;97457.06;5071163;28;20066;-58
2022/01/01 07:22:41;;;;;;;20.23;9.70;;;;;;;0.94;72.74;97463.19;5071839;28;20055;-57
2022/01/01 07:25:07;;;;;;;20.75;9.85;;;;;;;0.90;72.95;97469.88;5071269;28;20514;-58
2022/01/01 07:27:33;;;;;;;20.80;9.93;;;;;;;0.82;73.38;97463.13;5071608;28;20044;-57
2022/01/01 07:29:59;;;;;;;21.45;10.73;;;;;;;0.82;73.40;97465.75;5071429;28;20044;-59
2022/01/01 07:32:24;;;;;;;18.77;9.73;;;;;;;0.92;73.28;97467.84;5053291;28;20036;-58
2022/01/01 07:34:50;;;;;;;17.90;9.57;;;;;;;0.98;73.18;97466.94;5071423;28;20105;-57
2022/01/01 07:37:16;;;;;;;19.98;9.75;;;;;;;1.05;72.49;97472.84;5070982;28;20076;-57
2022/01/01 07:39:42;;;;;;;19.23;9.75;;;;;;;1.07;72.58;97483.09;5071343;28;20044;-59
2022/01/01 07:42:08;;;;;;;17.77;9.45;;;;;;;1.00;72.58;97477.97;5070213;28;20094;-57
2022/01/01 07:44:33;;;;;;;18.33;9.25;;;;;;;0.96;72.69;97478.63;5071319;28;20040;-57
2022/01/01 07:47:00;;;;;;;16.80;9.82;;;;;;;1.02;72.77;97475.91;5071186;28;20037;-58
2022/01/01 07:49:26;;;;;;;18.48;9.48;;;;;;;0.98;72.66;97471.38;5071195;28;20044;-60
2022/01/01 07:51:52;;;;;;;18.88;9.68;;;;;;;0.90;73.23;97469.88;5071399;28;20050;-58
2022/01/01 07:54:18;;;;;;;17.50;9.35;;;;;;;0.90;72.93;97472.47;5071296;28;20040;-59
2022/01/01 07:56:44;;;;;;;17.17;8.93;;;;;;;0.86;73.73;97466.13;5071142;28;20040;-59
2022/01/01 07:59:09;;;;;;;17.38;8.88;;;;;;;1.05;73.33;97479.91;5071098;28;20213;-59
2022/01/01 08:01:36;;;;;;;15.98;8.55;;;;;;;1.11;72.81;97482.41;5070886;28;20083;-57
2022/01/01 08:04:03;;;;;;;18.42;9.95;;;;;;;1.16;72.61;97480.97;5071156;28;20136;-59
2022/01/01 08:06:30;;;;;;;19.45;9.43;;;;;;;1.00;72.58;97475.34;5071150;28;20139;-58
2022/01/01 08:08:55;;;;;;;19.58;9.43;;;;;;;0.99;72.66;97488.63;5069805;28;20048;-59
2022/01/01 08:11:21;;;;;;;21.13;9.88;;;;;;;1.09;73.10;97488.88;5071008;28;20486;-58
2022/01/01 08:13:47;;;;;;;19.38;8.65;;;;;;;1.20;72.17;97495.94;5069912;28;20056;-59
2022/01/01 08:16:13;;;;;;;23.85;11.50;;;;;;;1.05;72.26;97498.94;5070979;28;20044;-56
2022/01/01 08:18:39;;;;;;;16.83;9.88;;;;;;;1.06;72.64;97497.13;5070878;28;20086;-56
2022/01/01 08:21:08;;;;;;;18.98;9.40;;;;;;;0.95;72.87;97498.69;5069785;28;20041;-61
2022/01/01 08:23:34;;;;;;;17.80;10.27;;;;;;;1.04;72.85;97499.19;5071380;28;20402;-59
2022/01/01 08:26:00;;;;;;;23.55;9.70;;;;;;;1.12;72.70;97499.66;5069438;28;20056;-58
2022/01/01 08:28:26;;;;;;;18.70;9.88;;;;;;;1.10;73.16;97490.47;5070819;28;20040;-57
2022/01/01 08:30:52;;;;;;;18.55;9.88;;;;;;;1.01;72.45;97489.97;5069266;28;20045;-58
2022/01/01 08:33:18;;;;;;;17.60;9.60;;;;;;;1.04;73.05;97496.56;5069749;28;20502;-58
2022/01/01 08:35:44;;;;;;;18.48;10.30;;;;;;;1.07;72.55;97494.31;5071230;28;20064;-58
2022/01/01 08:38:10;;;;;;;21.25;10.30;;;;;;;1.13;72.19;97492.63;5070933;28;20468;-59
2022/01/01 08:40:36;;;;;;;18.75;9.50;;;;;;;1.19;71.88;97488.34;5069292;28;20186;-58
2022/01/01 08:43:02;;;;;;;20.02;10.25;;;;;;;1.17;72.51;97488.53;5071142;28;20079;-58
2022/01/01 08:45:27;;;;;;;16.08;9.73;;;;;;;1.23;72.45;97495.47;5070746;28;20083;-58
2022/01/01 08:47:54;;;;;;;21.75;9.43;;;;;;;1.34;71.84;97484.28;5071712;28;20397;-58
2022/01/01 08:50:19;;;;;;;18.15;9.45;;;;;;;1.39;71.47;97490.66;5074020;28;20559;-58
2022/01/01 08:52:45;;;;;;;16.08;9.68;;;;;;;1.39;71.78;97483.63;5074009;28;20056;-59
2022/01/01 08:55:11;;;;;;;21.30;9.90;;;;;;;1.33;71.71;97497.56;5072950;28;20041;-58
2022/01/01 08:57:37;;;;;;;23.05;12.25;;;;;;;1.22;71.82;97493.09;5074401;28;20037;-57
2022/01/01 09:00:09;;;;;;;24.75;13.10;;;;;;;1.15;72.71;97490.59;5074142;28;20045;-57
2022/01/01 09:02:35;;;;;;;22.20;10.77;;;;;;;1.14;72.08;97492.41;5074386;28;20071;-59
2022/01/01 09:05:01;;;;;;;25.00;12.82;;;;;;;1.14;72.48;97489.78;5072818;28;20134;-60
2022/01/01 09:07:30;;;;;;;35.38;14.45;;;;;;;1.11;72.56;97492.84;5074015;28;20418;-57
2022/01/01 09:10:00;;;;;;;34.38;15.85;;;;;;;1.16;72.36;97481.75;5073977;28;20048;-59
2022/01/01 09:12:27;;;;;;;;;;;;;;;1.18;72.30;97486.72;5074397;28;20503;-58
2022/01/01 09:14:53;;;;;;;19.05;9.52;;;;;;;1.05;72.48;97483.28;5072403;28;20309;-57
2022/01/01 09:17:19;;;;;;;17.10;8.88;;;;;;;1.10;71.99;97480.03;5073701;28;20047;-58
2022/01/01 09:19:45;;;;;;;12.80;7.38;;;;;;;1.05;71.88;97479.91;5072328;28;20445;-59
2022/01/01 09:22:11;;;;;;;13.45;8.38;;;;;;;1.00;71.51;97487.59;5073612;28;20060;-58
2022/01/01 09:24:37;;;;;;;13.93;8.23;;;;;;;1.08;71.21;97479.44;5073585;28;20053;-58
2022/01/01 09:27:03;;;;;;;13.30;8.18;;;;;;;1.17;71.36;97482.53;5072051;28;20398;-58
2022/01/01 09:29:29;;;;;;;10.63;6.78;;;;;;;1.06;70.72;97479.69;5073792;28;20105;-56
2022/01/01 09:31:55;;;;;;;9.55;6.30;;;;;;;0.86;70.52;97473.94;5073282;28;20490;-58
2022/01/01 09:34:21;;;;;;;9.30;6.28;;;;;;;0.94;70.65;97480.66;5073459;28;20056;-58
2022/01/01 09:36:49;;;;;;;9.45;5.80;;;;;;;0.96;69.43;97476.00;5073110;28;20502;-59
2022/01/01 09:39:16;;;;;;;12.98;4.95;;;;;;;0.87;68.90;97471.09;5073349;28;20052;-57
2022/01/01 09:41:43;;;;;;;15.70;8.00;;;;;;;0.97;69.93;97472.38;5073043;28;20524;-59
2022/01/01 09:44:12;;;;;;;14.88;7.35;;;;;;;0.99;69.88;97478.19;5073517;28;20070;-59
2022/01/01 09:46:40;;;;;;;15.93;8.18;;;;;;;1.04;69.91;97471.28;5073000;28;20044;-58
2022/01/01 09:49:06;;;;;;;9.95;6.25;;;;;;;0.98;69.36;97469.56;5073124;28;20048;-59
2022/01/01 09:51:33;;;;;;;10.40;5.80;;;;;;;1.06;68.61;97468.44;5072803;28;20089;-58
2022/01/01 09:53:59;;;;;;;9.85;5.68;;;;;;;0.93;68.76;97466.81;5073051;28;20102;-59
2022/01/01 09:56:25;;;;;;;7.57;4.65;;;;;;;0.97;68.47;97470.59;5072684;28;20036;-58
2022/01/01 09:58:51;;;;;;;9.18;5.03;;;;;;;1.03;68.76;97474.91;5072721;28;20115;-59
2022/01/01 10:01:16;;;;;;;11.00;4.90;;;;;;;0.94;68.91;97471.00;5072733;28;20045;-59
2022/01/01 10:03:44;;;;;;;10.02;5.45;;;;;;;0.97;68.69;97472.38;5073453;28;20044;-57
2022/01/01 10:06:15;;;;;;;7.82;4.93;;;;;;;1.09;69.00;97479.25;5072950;28;20105;-57
2022/01/01 10:08:45;;;;;;;10.23;5.57;;;;;;;1.07;68.59;97475.25;5072095;28;20040;-58
2022/01/01 10:11:11;;;;;;;10.82;6.22;;;;;;;1.04;68.61;97471.28;5072712;28;20044;-58
2022/01/01 10:13:38;;;;;;;10.50;6.13;;;;;;;1.02;69.09;97469.91;5073540;28;20036;-59
2022/01/01 10:16:06;;;;;;;9.82;5.30;;;;;;;1.08;68.00;97475.03;5073443;28;20055;-58
2022/01/01 10:18:44;;;;;;;9.32;5.03;;;;;;;0.95;68.02;97461.38;5071766;28;20041;-57
2022/01/01 10:21:21;;;;;;;11.15;5.75;;;;;;;1.00;68.77;97469.31;5071483;28;20044;-57
2022/01/01 10:23:52;;;;;;;8.98;4.90;;;;;;;0.92;67.66;97473.06;5054776;28;20083;-57
2022/01/01 10:29:07;;;;;;;11.63;5.38;;;;;;;0.80;68.62;97465.19;5072685;28;20425;-58
2022/01/01 10:31:34;;;;;;;7.72;4.45;;;;;;;0.85;68.07;97470.56;5072272;28;20058;-59
2022/01/01 10:34:01;;;;;;;8.90;4.85;;;;;;;0.89;68.07;97465.69;5072147;28;20060;-57
2022/01/01 10:36:30;;;;;;;9.55;4.70;;;;;;;0.73;68.30;97466.28;5037534;28;20037;-57
2022/01/01 10:39:26;;;;;;;9.60;4.82;;;;;;;0.73;68.99;97450.63;5070688;28;20080;-58
2022/01/01 10:41:55;;;;;;;8.50;4.03;;;;;;;0.68;68.44;97449.50;5072165;28;20448;-57
2022/01/01 10:44:42;;;;;;;7.68;5.00;;;;;;;0.74;69.35;97453.03;5072206;28;20414;-58
2022/01/01 10:47:27;;;;;;;5.63;3.58;;;;;;;0.84;67.03;97452.50;5053862;28;20039;-58
2022/01/01 10:52:37;;;;;;;7.93;5.07;;;;;;;0.78;68.64;97451.56;5071943;28;20136;-58
2022/01/01 10:55:06;;;;;;;7.75;4.82;;;;;;;0.81;68.82;97458.16;5072074;28;20063;-59
2022/01/01 10:57:37;;;;;;;8.43;5.25;;;;;;;0.81;68.48;97448.50;5071807;28;20062;-57
2022/01/01 11:00:06;;;;;;;9.35;4.63;;;;;;;0.81;67.03;97448.50;5071993;28;20498;-59
2022/01/01 11:02:34;;;;;;;6.68;4.30;;;;;;;0.82;66.91;97457.13;5070333;28;20139;-57
2022/01/01 11:05:00;;;;;;;10.07;4.65;;;;;;;0.69;67.57;97452.91;5071996;28;20127;-58
2022/01/01 11:07:29;;;;;;;8.45;4.00;;;;;;;0.60;67.60;97460.22;5071403;28;20074;-58
2022/01/01 11:09:56;;;;;;;5.63;3.80;;;;;;;0.55;68.11;97452.28;5071701;28;20048;-58
2022/01/01 11:12:24;;;;;;;6.97;4.20;;;;;;;0.67;67.85;97454.94;5069914;28;20101;-59
2022/01/01 11:14:52;;;;;;;6.78;4.22;;;;;;;0.65;68.19;97451.75;5071379;28;20521;-58
2022/01/01 11:17:19;;;;;;;14.18;6.13;;;;;;;0.72;68.47;97451.66;5071578;28;20044;-58
2022/01/01 11:19:45;;;;;;;8.20;4.65;;;;;;;0.68;68.75;97440.88;5071387;28;20056;-58
2022/01/01 11:22:12;;;;;;;9.90;5.47;;;;;;;0.76;68.36;97447.59;5053706;28;20459;-58
2022/01/01 11:24:41;;;;;;;10.23;5.53;;;;;;;0.79;68.37;97434.91;5071152;28;20391;-59
2022/01/01 11:27:10;;;;;;;12.38;5.10;;;;;;;0.75;69.02;97449.41;5071303;28;20040;-60
2022/01/01 11:29:36;;;;;;;9.85;4.95;;;;;;;0.77;68.66;97455.22;5053553;28;20087;-58
2022/01/01 11:32:04;;;;;;;6.97;5.22;;;;;;;0.74;69.22;97453.03;5071343;28;20548;-59
2022/01/01 11:34:31;;;;;;;10.18;5.38;;;;;;;0.71;68.89;97458.69;5036579;28;20528;-58
2022/01/01 11:36:57;;;;;;;9.35;5.35;;;;;;;0.80;69.23;97467.81;5071245;28;20379;-58